Time;durP1;ratioP1;P1;durP2;ratioP2;P2;SDS_P1;SDS_P2;PMS_P1;PMS_P2;Temp;Humidity;BMP_temperature;BMP_pressure;BME280_temperature;BME280_humidity;BME280_pressure;Samples;Min_cycle;Max_cycle;Signal;HPM_P1;HPM_P2
2022/01/10 00:00:22;;;;;;;;;;;;;;;2.12;100.00;100070.53;5033102;28;784;-72
2022/01/10 00:02:51;;;;;;;;;;;;;;;2.14;100.00;100065.97;5032331;28;1010;-73
2022/01/10 00:05:17;;;;;;;;;;;;;;;2.17;100.00;100073.81;5029869;28;986;-72
2022/01/10 00:07:44;;;;;;;;;;;;;;;2.17;100.00;100073.81;5030062;28;1325;-70
2022/01/10 00:10:12;;;;;;;;;;;;;;;2.18;100.00;100072.00;5030849;28;1918;-72
2022/01/10 00:12:38;;;;;;;;;;;;;;;2.15;100.00;100081.09;5030810;28;1057;-71
2022/01/10 00:15:05;;;;;;;;;;;;;;;2.10;100.00;100082.25;5030873;28;1158;-71
2022/01/10 00:17:32;;;;;;;;;;;;;;;2.09;100.00;100093.94;5028983;28;1399;-71
2022/01/10 00:19:58;;;;;;;;;;;;;;;2.10;100.00;100103.69;5030706;28;876;-71
2022/01/10 00:22:26;;;;;;;;;;;;;;;2.09;100.00;100104.66;5030914;28;1046;-70
2022/01/10 00:24:52;;;;;;;;;;;;;;;2.05;100.00;100108.47;5030708;28;950;-73
2022/01/10 00:27:20;;;;;;;;;;;;;;;2.02;100.00;100109.50;5030330;28;1396;-71
2022/01/10 00:29:46;;;;;;;;;;;;;;;2.01;100.00;100123.81;5030643;28;1914;-69
2022/01/10 00:32:12;;;;;;;;;;;;;;;2.01;100.00;100115.78;5031076;28;982;-71
2022/01/10 00:34:38;;;;;;;;;;;;;;;1.99;100.00;100126.59;5013406;28;1345;-72
2022/01/10 00:37:05;;;;;;;;;;;;;;;2.00;100.00;100127.44;5029342;28;797;-72
2022/01/10 00:39:32;;;;;;;;;;;;;;;2.02;100.00;100133.59;5030881;28;1365;-71
2022/01/10 00:41:58;;;;;;;;;;;;;;;2.00;100.00;100138.16;5029894;28;797;-71
2022/01/10 00:44:27;;;;;;;;;;;;;;;1.95;100.00;100141.09;5030880;28;1042;-72
2022/01/10 00:46:54;;;;;;;;;;;;;;;1.97;100.00;100141.84;5029350;28;1010;-71
2022/01/10 00:49:20;;;;;;;;;;;;;;;1.96;100.00;100153.50;5012988;28;1309;-71
2022/01/10 00:51:47;;;;;;;;;;;;;;;1.98;100.00;100145.41;5030446;28;1919;-69
2022/01/10 00:54:13;;;;;;;;;;;;;;;1.97;100.00;100160.59;5029085;28;1069;-71
2022/01/10 00:56:39;;;;;;;;;;;;;;;2.02;100.00;100157.69;5030502;28;994;-70
2022/01/10 00:59:06;;;;;;;;;;;;;;;2.00;100.00;100165.81;5029270;28;1290;-71
2022/01/10 01:01:33;;;;;;;;;;;;;;;1.97;100.00;100168.63;5030610;28;1046;-69
2022/01/10 01:04:00;;;;;;;;;;;;;;;1.96;100.00;100168.72;5038314;28;982;-72
2022/01/10 01:06:26;;;;;;;;;;;;;;;1.99;100.00;100180.13;5031055;28;1066;-71
2022/01/10 01:08:58;;;;;;;;;;;;;;;1.99;100.00;100176.56;5030310;28;1276;-69
2022/01/10 01:12:02;;;;;;;;;;;;;;;1.98;100.00;100185.56;5030061;28;2001;-69
2022/01/10 01:14:49;;;;;;;;;;;;;;;1.92;100.00;100189.44;5028711;28;1488;-71
2022/01/10 01:17:33;;;;;;;;;;;;;;;1.91;100.00;100198.44;5030246;28;1383;-72
2022/01/10 01:20:20;;;;;;;;;;;;;;;1.92;100.00;100192.09;5033631;28;1070;-72
2022/01/10 01:25:31;;;;;;;;;;;;;;;1.89;100.00;100210.16;5032653;28;860;-72
2022/01/10 01:27:58;;;;;;;;;;;;;;;1.90;100.00;100211.88;5032251;28;1302;-73
2022/01/10 01:30:24;;;;;;;;;;;;;;;1.89;100.00;100216.38;5033950;28;1967;-72
2022/01/10 01:32:52;;;;;;;;;;;;;;;1.94;100.00;100224.16;5032957;28;963;-70
2022/01/10 01:35:23;;;;;;;;;;;;;;;1.99;100.00;100233.69;5033903;28;809;-70
2022/01/10 01:37:50;;;;;;;;;;;;;;;2.00;100.00;100234.53;5032130;28;1348;-71
2022/01/10 01:40:18;;;;;;;;;;;;;;;2.02;100.00;100238.00;5032563;28;852;-70
2022/01/10 01:42:44;;;;;;;;;;;;;;;2.05;100.00;100245.88;5015871;28;1257;-70
2022/01/10 01:45:12;;;;;;;;;;;;;;;2.02;100.00;100248.72;5032135;28;865;-71
2022/01/10 01:47:40;;;;;;;;;;;;;;;2.00;100.00;100248.81;5031961;28;1302;-71
2022/01/10 01:50:17;;;;;;;;;;;;;;;2.01;100.00;100258.53;5034932;28;1914;-71
2022/01/10 01:52:43;;;;;;;;;;;;;;;2.07;100.00;100264.53;5036553;28;1122;-68
2022/01/10 01:55:10;;;;;;;;;;;;;;;2.09;100.00;100268.00;5032381;28;724;-72
2022/01/10 01:57:37;;;;;;;;;;;;;;;2.16;100.00;100275.63;5032836;28;1321;-70
2022/01/10 02:00:04;;;;;;;;;;;;;;;2.17;100.00;100281.84;5032652;28;923;-72
2022/01/10 02:02:31;;;;;;;;;;;;;;;2.14;100.00;100282.88;5032008;28;923;-70
2022/01/10 02:04:57;;;;;;;;;;;;;;;2.08;100.00;100285.84;5015769;28;1250;-72
2022/01/10 02:07:25;;;;;;;;;;;;;;;2.02;100.00;100283.53;5032751;28;1340;-72
2022/01/10 02:09:51;;;;;;;;;;;;;;;2.05;100.00;100291.38;5032718;28;999;-72
2022/01/10 02:12:18;;;;;;;;;;;;;;;2.12;100.00;100297.28;5032037;28;1922;-71
2022/01/10 02:14:46;;;;;;;;;;;;;;;2.17;100.00;100303.25;5031828;28;1194;-72
2022/01/10 02:17:16;;;;;;;;;;;;;;;2.21;100.00;100299.47;5031780;28;848;-68
2022/01/10 02:19:54;;;;;;;;;;;;;;;2.26;100.00;100302.78;5032011;28;1018;-72
2022/01/10 02:22:21;;;;;;;;;;;;;;;2.30;100.00;100309.69;5038719;28;1007;-73
2022/01/10 02:25:01;;;;;;;;;;;;;;;2.31;100.00;100316.78;5031813;28;872;-70
2022/01/10 02:27:28;;;;;;;;;;;;;;;2.30;100.00;100319.56;5031485;28;1396;-70
2022/01/10 02:29:55;;;;;;;;;;;;;;;2.30;100.00;100325.78;5032516;28;863;-71
2022/01/10 02:32:21;;;;;;;;;;;;;;;2.30;100.00;100323.09;5031742;28;1918;-71
2022/01/10 02:34:48;;;;;;;;;;;;;;;2.34;100.00;100337.19;5031636;28;928;-70
2022/01/10 02:37:30;;;;;;;;;;;;;;;2.34;100.00;100338.06;5031111;28;1324;-70
2022/01/10 02:39:58;;;;;;;;;;;;;;;2.34;100.00;100335.38;5031422;28;1338;-70
2022/01/10 02:42:25;;;;;;;;;;;;;;;2.35;100.00;100344.25;5031233;28;863;-71
2022/01/10 02:44:51;;;;;;;;;;;;;;;2.36;100.00;100353.19;5031369;28;924;-70
2022/01/10 02:47:17;;;;;;;;;;;;;;;2.38;100.00;100356.63;5014510;28;1410;-72
2022/01/10 02:49:44;;;;;;;;;;;;;;;2.39;100.00;100353.00;5031142;28;947;-71
2022/01/10 02:52:10;;;;;;;;;;;;;;;2.39;100.00;100364.59;5032467;28;1927;-72
2022/01/10 02:54:36;;;;;;;;;;;;;;;2.42;100.00;100367.13;5031114;28;824;-71
2022/01/10 02:57:13;;;;;;;;;;;;;;;2.44;100.00;100373.25;5032483;28;800;-72
2022/01/10 02:59:39;;;;;;;;;;;;;;;2.47;100.00;100377.59;5043743;23;2612;-75
2022/01/10 03:02:07;;;;;;;;;;;;;;;2.49;100.00;100378.38;5031934;28;824;-73
2022/01/10 03:04:34;;;;;;;;;;;;;;;2.50;100.00;100380.97;5031765;28;809;-72
2022/01/10 03:07:00;;;;;;;;;;;;;;;2.51;100.00;100385.41;5014110;28;1334;-75
2022/01/10 03:09:27;;;;;;;;;;;;;;;2.53;100.00;100387.13;5013982;28;1411;-75
2022/01/10 03:11:55;;;;;;;;;;;;;;;2.55;100.00;100399.47;5030333;28;1919;-75
2022/01/10 03:14:22;;;;;;;;;;;;;;;2.57;100.00;100399.41;5030483;28;1218;-76
2022/01/10 03:16:49;;;;;;;;;;;;;;;2.58;100.00;100406.47;5030036;28;793;-74
2022/01/10 03:19:15;;;;;;;;;;;;;;;2.60;100.00;100410.81;5030185;28;1318;-73
2022/01/10 03:21:41;;;;;;;;;;;;;;;2.59;100.00;100417.16;5030338;28;931;-76
2022/01/10 03:24:08;;;;;;;;;;;;;;;2.59;100.00;100414.47;5030233;28;998;-77
2022/01/10 03:26:34;;;;;;;;;;;;;;;2.61;100.00;100417.06;5029990;28;911;-76
2022/01/10 03:29:03;;;;;;;;;;;;;;;2.61;100.00;100417.06;5013730;28;1423;-75
2022/01/10 03:31:31;;;;;;;;;;;;;;;2.63;100.00;100425.88;5030134;28;1906;-75
2022/01/10 03:33:59;;;;;;;;;;;;;;;2.62;100.00;100419.66;5030151;28;1124;-75
2022/01/10 03:36:26;;;;;;;;;;;;;;;2.63;100.00;100432.13;5012903;28;876;-75
2022/01/10 03:38:52;;;;;;;;;;;;;;;2.65;100.00;100440.06;5030363;28;1534;-74
2022/01/10 03:41:18;;;;;;;;;;;;;;;2.65;100.00;100450.78;5029095;28;986;-73
2022/01/10 03:43:45;;;;;;;;;;;;;;;2.65;100.00;100450.78;5031229;28;832;-75
2022/01/10 03:46:11;;;;;;;;;;;;;;;2.63;100.00;100452.66;5029650;28;864;-76
2022/01/10 03:48:39;;;;;;;;;;;;;;;2.63;100.00;100452.66;5029718;28;1329;-75
2022/01/10 03:51:05;;;;;;;;;;;;;;;2.65;100.00;100453.47;5029742;28;1910;-73
2022/01/10 03:53:33;;;;;;;;;;;;;;;2.65;100.00;100466.88;5029707;28;835;-75
2022/01/10 03:55:59;;;;;;;;;;;;;;;2.66;100.00;100472.16;5029439;28;750;-74
2022/01/10 03:58:25;;;;;;;;;;;;;;;2.66;100.00;100476.66;5029700;28;1401;-75
2022/01/10 04:00:52;;;;;;;;;;;;;;;2.66;100.00;100482.03;5029654;28;840;-75
2022/01/10 04:03:18;;;;;;;;;;;;;;;2.65;100.00;100477.59;5030827;28;867;-74
2022/01/10 04:05:53;;;;;;;;;;;;;;;2.65;100.00;100493.69;5029293;28;805;-75
2022/01/10 04:08:20;;;;;;;;;;;;;;;2.61;100.00;100492.97;5029437;28;1802;-75
2022/01/10 04:10:46;;;;;;;;;;;;;;;2.62;100.00;100493.81;5029541;28;1977;-73
2022/01/10 04:13:13;;;;;;;;;;;;;;;2.64;100.00;100494.63;5029658;28;1062;-75
2022/01/10 04:15:41;;;;;;;;;;;;;;;2.66;100.00;100496.28;5029186;28;1251;-77
2022/01/10 04:18:07;;;;;;;;;;;;;;;2.70;100.00;100501.47;5045914;28;1373;-72
2022/01/10 04:20:34;;;;;;;;;;;;;;;2.74;100.00;100501.25;5045936;28;827;-73
2022/01/10 04:23:01;;;;;;;;;;;;;;;2.76;100.00;100514.56;5029099;28;1135;-73
2022/01/10 04:25:28;;;;;;;;;;;;;;;2.80;100.00;100519.66;5030850;28;705;-75
2022/01/10 04:27:55;;;;;;;;;;;;;;;2.79;100.00;100528.69;5045842;28;879;-75
2022/01/10 04:30:28;;;;;;;;;;;;;;;2.80;100.00;100524.19;5045647;28;1349;-74
2022/01/10 04:32:57;;;;;;;;;;;;;;;2.83;100.00;100530.25;5045283;28;1910;-73
2022/01/10 04:35:23;;;;;;;;;;;;;;;2.88;100.00;100526.47;5030229;28;989;-74
2022/01/10 04:37:49;;;;;;;;;;;;;;;2.89;100.00;100537.09;5028904;28;1002;-74
2022/01/10 04:40:18;;;;;;;;;;;;;;;2.90;100.00;100535.28;5045359;28;1387;-73
2022/01/10 04:42:46;;;;;;;;;;;;;;;2.90;100.00;100549.56;5028987;28;902;-74
2022/01/10 04:45:12;;;;;;;;;;;;;;;2.91;100.00;100550.44;5045453;28;1056;-75
2022/01/10 04:47:39;;;;;;;;;;;;;;;2.92;100.00;100558.38;5045353;28;1041;-74
2022/01/10 04:50:42;;;;;;;;;;;;;;;2.93;100.00;100567.31;5045555;28;1314;-75
2022/01/10 04:53:09;;;;;;;;;;;;;;;2.97;100.00;100571.56;5047091;28;1918;-76
2022/01/10 04:55:36;;;;;;;;;;;;;;;2.99;100.00;100569.66;5049616;28;776;-75
2022/01/10 04:58:03;;;;;;;;;;;;;;;3.00;100.00;100582.13;5049664;28;1015;-76
2022/01/10 05:00:29;;;;;;;;;;;;;;;3.00;100.00;100592.84;5033851;28;1361;-75
2022/01/10 05:02:56;;;;;;;;;;;;;;;3.03;100.00;100599.88;5034308;28;934;-75
2022/01/10 05:05:22;;;;;;;;;;;;;;;3.04;100.00;100597.13;5049473;28;971;-73
2022/01/10 05:07:49;;;;;;;;;;;;;;;3.07;100.00;100599.63;5032424;28;808;-72
2022/01/10 05:10:17;;;;;;;;;;;;;;;3.08;100.00;100612.09;5049227;28;1332;-73
2022/01/10 05:12:45;;;;;;;;;;;;;;;3.10;100.00;100606.66;5048851;28;1914;-75
2022/01/10 05:15:12;;;;;;;;;;;;;;;3.10;100.00;100615.56;5032466;28;1306;-75
2022/01/10 05:17:39;;;;;;;;;;;;;;;3.11;100.00;100621.81;5031681;28;1702;-74
2022/01/10 05:20:07;;;;;;;;;;;;;;;3.08;100.00;100633.56;5031020;28;2075;-76
2022/01/10 05:22:33;;;;;;;;;;;;;;;3.10;100.00;100628.09;5032840;28;1724;-76
2022/01/10 05:24:59;;;;;;;;;;;;;;;3.13;100.00;100631.50;5032438;28;1167;-74
2022/01/10 05:27:26;;;;;;;;;;;;;;;3.15;100.00;100635.00;5032461;28;824;-72
2022/01/10 05:29:57;;;;;;;;;;;;;;;3.15;100.00;100642.16;5032026;28;1455;-75
2022/01/10 05:32:23;;;;;;;;;;;;;;;3.17;100.00;100646.50;5019446;28;1982;-72
2022/01/10 05:35:21;;;;;;;;;;;;;;;3.18;100.00;100653.59;4991126;28;1165;-73
2022/01/10 05:37:48;;;;;;;;;;;;;;;3.22;100.00;100666.84;5036812;28;1540;-73
2022/01/10 05:40:15;;;;;;;;;;;;;;;3.22;100.00;100669.53;5031595;28;1507;-72
2022/01/10 05:42:41;;;;;;;;;;;;;;;3.22;100.00;100680.25;5031390;28;1573;-75
2022/01/10 05:45:09;;;;;;;;;;;;;;;3.22;100.00;100681.16;5032713;28;1518;-74
2022/01/10 05:47:42;;;;;;;;;;;;;;;3.26;100.00;100687.19;5031349;28;1509;-73
2022/01/10 05:50:10;;;;;;;;;;;;;;;3.23;100.00;100685.53;5032596;28;1510;-75
2022/01/10 05:52:40;;;;;;;;;;;;;;;3.23;100.00;100698.97;5031669;28;1910;-75
2022/01/10 05:55:07;;;;;;;;;;;;;;;3.24;100.00;100700.69;5033225;28;840;-76
2022/01/10 05:57:37;;;;;;;;;;;;;;;3.23;100.00;100698.97;5015541;28;1456;-76
2022/01/10 06:00:05;;;;;;;;;;;;;;;3.24;100.00;100713.25;5031579;28;1318;-76
2022/01/10 06:02:42;;;;;;;;;;;;;;;3.25;100.00;100717.69;5033289;28;1243;-76
2022/01/10 06:05:12;;;;;;;;;;;;;;;3.25;100.00;100728.41;5063879;28;1436;-76
2022/01/10 06:07:45;;;;;;;;;;;;;;;3.26;100.00;100735.50;5048200;28;1026;-76
2022/01/10 06:10:11;;;;;;;;;;;;;;;3.24;100.00;100729.34;5065378;28;1320;-76
2022/01/10 06:12:38;;;;;;;;;;;;;;;3.26;100.00;100741.75;5031666;28;1915;-75
2022/01/10 06:15:05;;;;;;;;;;;;;;;3.27;100.00;100745.28;5065001;28;1077;-75
2022/01/10 06:17:34;;;;;;;;;;;;;;;3.29;100.00;100751.47;5031229;28;868;-76
2022/01/10 06:20:02;;;;;;;;;;;;;;;3.30;100.00;100758.53;5031655;28;1350;-74
2022/01/10 06:22:29;;;;;;;;;;;;;;;3.31;100.00;100757.59;5065136;28;966;-77
2022/01/10 06:24:56;;;;;;;;;;;;;;;3.31;100.00;100758.50;5032958;28;656;-76
2022/01/10 06:27:23;;;;;;;;;;;;;;;3.32;100.00;100759.34;5064217;28;1045;-74
2022/01/10 06:29:50;;;;;;;;;;;;;;;3.31;100.00;100766.53;5044385;28;1367;-74
2022/01/10 06:32:16;;;;;;;;;;;;;;;3.31;100.00;100776.38;5027557;28;2021;-74
2022/01/10 06:34:43;;;;;;;;;;;;;;;3.31;100.00;100776.38;5025507;28;1328;-75
2022/01/10 06:37:11;;;;;;;;;;;;;;;3.29;100.00;100789.88;5028483;28;1264;-75
2022/01/10 06:39:42;;;;;;;;;;;;;;;3.32;100.00;100804.97;5029790;28;1431;-76
2022/01/10 06:42:09;;;;;;;;;;;;;;;3.30;100.00;100807.72;5011724;28;1149;-76
2022/01/10 06:44:35;;;;;;;;;;;;;;;3.27;100.00;100815.06;5035460;28;1236;-77
2022/01/10 06:47:02;;;;;;;;;;;;;;;3.26;100.00;100818.66;5016060;28;1707;-76
2022/01/10 06:49:28;;;;;;;;;;;;;;;3.23;100.00;100822.38;5034395;28;1463;-75
2022/01/10 06:51:54;;;;;;;;;;;;;;;3.17;100.00;100828.91;5033583;28;1970;-76
2022/01/10 06:54:23;;;;;;;;;;;;;;;3.19;100.00;100834.19;5017944;28;1392;-75
2022/01/10 06:56:49;;;;;;;;;;;;;;;3.18;100.00;100838.72;5014890;28;1123;-77
2022/01/10 06:59:16;;;;;;;;;;;;;;;3.21;100.00;100850.22;5026795;28;1559;-76
2022/01/10 07:01:46;;;;;;;;;;;;;;;3.20;100.00;100849.34;5039654;28;1437;-77
2022/01/10 07:04:13;;;;;;;;;;;;;;;3.18;100.00;100862.00;5030236;28;1277;-77
2022/01/10 07:06:40;;;;;;;;;;;;;;;3.15;100.00;100865.69;5029423;28;1507;-77
2022/01/10 07:09:14;;;;;;;;;;;;;;;3.16;100.00;100867.41;5029752;28;1591;-76
2022/01/10 07:11:53;;;;;;;;;;;;;;;3.17;100.00;100879.88;5011898;28;1918;-77
2022/01/10 07:14:20;;;;;;;;;;;;;;;3.14;100.00;100876.47;5012911;28;1462;-76
2022/01/10 07:16:50;;;;;;;;;;;;;;;3.13;100.00;100883.66;5029410;28;1554;-76
2022/01/10 07:19:17;;;;;;;;;;;;;;;3.11;100.00;100896.25;5026604;28;1506;-76
2022/01/10 07:21:43;;;;;;;;;;;;;;;3.12;100.00;100899.84;5021298;28;2086;-75
2022/01/10 07:24:11;;;;;;;;;;;;;;;3.09;100.00;100908.91;5046182;28;1065;-74
2022/01/10 07:26:38;;;;;;;;;;;;;;;3.07;100.00;100913.44;5030386;28;1361;-75
2022/01/10 07:29:07;;;;;;;;;;;;;;;3.06;100.00;100922.47;5029307;28;1353;-75
2022/01/10 07:31:33;;;;;;;;;;;;;;;3.06;100.00;100925.16;5030191;28;1557;-75
2022/01/10 07:34:00;;;;;;;;;;;;;;;3.03;100.00;100933.31;5045284;28;1902;-76
2022/01/10 07:36:26;;;;;;;;;;;;;;;2.99;100.00;100942.44;5028509;28;1593;-75
2022/01/10 07:38:52;;;;;;;;;;;;;;;2.93;100.00;100942.75;5023660;28;1334;-76
2022/01/10 07:41:18;;;;;;;;;;;;;;;2.94;100.00;100945.34;5030878;28;938;-76
2022/01/10 07:43:45;;;;;;;;;;;;;;;2.95;100.00;100954.25;5030620;28;1517;-76
2022/01/10 07:46:12;;;;;;;;;;;;;;;2.95;100.00;100964.97;5030662;28;899;-75
2022/01/10 07:48:40;;;;;;;;;;;;;;;2.96;100.00;100974.78;5031461;28;1401;-75
2022/01/10 07:51:09;;;;;;;;;;;;;;;2.98;100.00;100980.94;5028766;28;1398;-76
2022/01/10 07:53:35;;;;;;;;;;;;;;;2.96;100.00;100993.56;5029627;28;1922;-76
2022/01/10 07:56:02;;;;;;;;;;;;;;;2.98;100.00;100991.66;5030253;28;975;-75
2022/01/10 07:58:29;;;;;;;;;;;;;;;2.99;100.00;100993.41;5029668;28;1509;-75
2022/01/10 08:00:55;;;;;;;;;;;;;;;2.99;100.00;101006.81;5030182;28;1501;-75
2022/01/10 08:03:23;;;;;;;;;;;;;;;3.01;100.00;101013.00;5030984;28;864;-74
2022/01/10 08:05:49;;;;;;;;;;;;;;;3.04;100.00;101020.91;5028796;28;1312;-76
2022/01/10 08:08:15;;;;;;;;;;;;;;;3.05;100.00;101014.59;5030263;28;1282;-75
2022/01/10 08:10:42;;;;;;;;;;;;;;;3.05;100.00;101028.00;5029099;28;1545;-74
2022/01/10 08:13:08;;;;;;;;;;;;;;;3.05;100.00;101024.44;5028650;28;1910;-75
2022/01/10 08:15:35;;;;;;;;;;;;;;;3.12;100.00;101032.13;5012327;28;1531;-73
2022/01/10 08:18:01;;;;;;;;;;;;;;;3.17;100.00;101042.69;5029876;28;958;-73
2022/01/10 08:20:29;;;;;;;;;;;;;;;3.19;100.00;101046.16;5029317;28;1643;-74
2022/01/10 08:22:55;;;;;;;;;;;;;;;3.23;100.00;101053.13;5011452;28;1525;-74
2022/01/10 08:25:21;;;;;;;;;;;;;;;3.25;100.00;101053.94;5028327;28;1534;-76
2022/01/10 08:27:48;;;;;;;;;;;;;;;3.22;100.00;101066.59;5018844;28;1542;-75
2022/01/10 08:30:14;;;;;;;;;;;;;;;3.24;100.00;101067.41;5029412;28;1580;-74
2022/01/10 08:32:40;;;;;;;;;;;;;;;3.24;100.00;101072.78;5030301;28;1918;-75
2022/01/10 08:35:07;;;;;;;;;;;;;;;3.25;100.00;101075.41;5028910;28;1368;-75
2022/01/10 08:37:35;;;;;;;;;;;;;;;3.24;100.00;101083.53;5026969;28;1418;-74
2022/01/10 08:40:01;;;;;;;;;;;;;;;3.24;100.00;101086.19;5029917;28;1381;-75
2022/01/10 08:42:28;;;;;;;;;;;;;;;3.25;100.00;101093.31;5027931;28;1569;-75
2022/01/10 08:44:54;;;;;;;;;;;;;;;3.23;100.00;101105.91;5028526;28;1483;-76
2022/01/10 08:47:21;;;;;;;;;;;;;;;3.27;100.00;101111.06;5027645;28;1483;-76
2022/01/10 08:49:47;;;;;;;;;;;;;;;3.27;100.00;101110.22;5030081;28;1537;-75
2022/01/10 08:52:14;;;;;;;;;;;;;;;3.24;100.00;101119.25;5030905;28;1977;-75
2022/01/10 08:54:42;;;;;;;;;;;;;;;3.24;100.00;101126.44;5029018;28;1425;-75
2022/01/10 08:57:08;;;;;;;;;;;;;;;3.25;100.00;101129.06;5035688;28;1565;-75
2022/01/10 08:59:34;;;;;;;;;;;;;;;3.23;100.00;101130.94;5029097;28;1525;-76
2022/01/10 09:02:01;;;;;;;;;;;;;;;3.25;100.00;101142.47;5027947;28;1296;-73
2022/01/10 09:04:28;;;;;;;;;;;;;;;3.19;100.00;101142.72;5030619;28;1017;-76
2022/01/10 09:06:55;;;;;;;;;;;;;;;3.17;100.00;101150.00;5027401;28;1582;-77
2022/01/10 09:09:22;;;;;;;;;;;;;;;3.21;100.00;101159.66;5030149;28;1510;-76
2022/01/10 09:11:50;;;;;;;;;;;;;;;3.23;100.00;101164.94;5032502;28;1573;-76
2022/01/10 09:14:16;;;;;;;;;;;;;;;3.24;100.00;101166.69;5029560;28;1918;-77
2022/01/10 09:16:43;;;;;;;;;;;;;;;3.22;100.00;101169.44;5028210;28;1578;-75
2022/01/10 09:19:09;;;;;;;;;;;;;;;3.21;100.00;101173.06;5054056;28;1514;-76
2022/01/10 09:21:36;;;;;;;;;;;;;;;3.22;100.00;101172.13;5029597;28;1278;-75
2022/01/10 09:24:03;;;;;;;;;;;;;;;3.26;100.00;101180.91;5029418;28;1377;-79
2022/01/10 09:26:30;;;;;;;;;;;;;;;3.25;100.00;101185.41;5016814;28;1573;-77
2022/01/10 09:28:57;;;;;;;;;;;;;;;3.27;100.00;101180.84;5029271;28;1827;-75
2022/01/10 09:31:23;;;;;;;;;;;;;;;3.31;100.00;101195.00;5029545;28;1510;-74
2022/01/10 09:33:53;;;;;;;;;;;;;;;3.33;100.00;101198.50;5028106;28;1984;-73
2022/01/10 09:36:20;;;;;;;;;;;;;;;3.35;100.00;101200.19;5029144;28;1434;-75
2022/01/10 09:38:46;;;;;;;;;;;;;;;3.33;100.00;101210.09;5029519;28;1397;-74
2022/01/10 09:41:13;;;;;;;;;;;;;;;3.32;100.00;101207.47;5036493;28;1482;-74
2022/01/10 09:43:39;;;;;;;;;;;;;;;3.39;100.00;101219.69;5033124;28;1552;-74
2022/01/10 09:46:08;;;;;;;;;;;;;;;3.43;100.00;101226.66;5032602;28;1462;-74
2022/01/10 09:48:34;;;;;;;;;;;;;;;3.39;100.00;101226.88;5032974;28;1389;-75
2022/01/10 09:51:00;;;;;;;;;;;;;;;3.38;100.00;101228.69;5016195;28;1299;-75
2022/01/10 09:53:27;;;;;;;;;;;;;;;3.29;100.00;101227.28;5028111;28;2147;-73
2022/01/10 09:55:53;;;;;;;;;;;;;;;3.29;100.00;101242.50;5033156;28;1585;-73
2022/01/10 09:58:19;;;;;;;;;;;;;;;3.20;100.00;101245.59;5032842;28;1632;-74
2022/01/10 10:00:46;;;;;;;;;;;;;;;3.20;100.00;101249.13;5037207;28;1312;-74
2022/01/10 10:03:13;;;;;;;;;;;;;;;3.23;100.00;101248.13;5030528;28;1588;-73
2022/01/10 10:05:39;;;;;;;;;;;;;;;3.22;100.00;101249.06;5032109;28;1407;-75
2022/01/10 10:08:06;;;;;;;;;;;;;;;3.26;100.00;101261.41;5032014;28;1584;-73
2022/01/10 10:10:32;;;;;;;;;;;;;;;3.28;100.00;101264.91;5030957;28;1609;-72
2022/01/10 10:12:58;;;;;;;;;;;;;;;3.16;100.00;101266.28;5047773;28;1911;-74
2022/01/10 10:15:30;;;;;;;;;;;;;;;3.09;100.00;101271.03;5030936;28;1554;-74
2022/01/10 10:17:56;;;;;;;;;;;;;;;3.11;100.00;101271.84;5030517;28;1557;-75
2022/01/10 10:20:24;;;;;;;;;;;;;;;3.05;100.00;101266.75;5031736;28;1546;-74
2022/01/10 10:22:53;;;;;;;;;;;;;;;3.09;100.00;101273.72;5030998;28;708;-73
2022/01/10 10:25:21;;;;;;;;;;;;;;;3.01;100.00;101273.16;5031417;28;1521;-73
2022/01/10 10:27:48;;;;;;;;;;;;;;;2.99;100.00;101280.41;5029056;28;1292;-74
2022/01/10 10:30:17;;;;;;;;;;;;;;;2.99;100.00;101286.66;5031827;28;1486;-74
2022/01/10 10:32:43;;;;;;;;;;;;;;;2.92;100.00;101285.13;5031949;28;1914;-74
2022/01/10 10:35:10;;;;;;;;;;;;;;;2.83;100.00;101291.75;5031489;28;1569;-73
2022/01/10 10:37:38;;;;;;;;;;;;;;;2.80;100.00;101299.03;5031794;28;1466;-73
2022/01/10 10:40:08;;;;;;;;;;;;;;;2.72;100.00;101295.78;5031580;28;1497;-74
2022/01/10 10:42:37;;;;;;;;;;;;;;;2.70;100.00;101306.59;5018622;28;1101;-73
2022/01/10 10:45:04;;;;;;;;;;;;;;;2.72;100.00;101307.38;5031562;28;1571;-75
2022/01/10 10:47:30;;;;;;;;;;;;;;;2.86;100.00;101317.59;5031327;28;1786;-73
2022/01/10 10:49:57;;;;;;;;;;;;;;;2.90;100.00;101323.66;5029893;28;1627;-74
2022/01/10 10:52:24;;;;;;;;;;;;;;;2.94;100.00;101327.97;5030854;28;1589;-74
2022/01/10 10:54:54;;;;;;;;;;;;;;;2.99;100.00;101326.00;5029778;28;1981;-73
2022/01/10 10:57:21;;;;;;;;;;;;;;;3.06;100.00;101335.56;5011852;28;794;-74
2022/01/10 10:59:48;;;;;;;;;;;;;;;3.14;100.00;101332.53;5027906;28;1355;-75
2022/01/10 11:02:15;;;;;;;;;;;;;;;3.24;100.00;101338.44;5032143;28;1042;-74
2022/01/10 11:04:42;;;;;;;;;;;;;;;3.20;100.00;101336.81;5031351;28;1494;-74
2022/01/10 11:07:09;;;;;;;;;;;;;;;3.17;100.00;101338.66;5029383;28;1543;-74
2022/01/10 11:09:35;;;;;;;;;;;;;;;3.16;100.00;101341.41;5021494;28;1593;-74
2022/01/10 11:12:03;;;;;;;;;;;;;;;3.17;100.00;101348.53;5029773;28;967;-73
2022/01/10 11:14:29;;;;;;;;;;;;;;;3.12;100.00;101354.06;5029262;28;1910;-73
2022/01/10 11:16:56;;;;;;;;;;;;;;;3.06;100.00;101351.66;5020911;28;1471;-73
2022/01/10 11:19:23;;;;;;;;;;;;;;;3.11;100.00;101356.81;5027921;28;1418;-76
2022/01/10 11:21:53;;;;;;;;;;;;;;;3.05;100.00;101357.94;5026322;28;1323;-74
2022/01/10 11:24:38;;;;;;;;;;;;;;;3.01;100.00;101348.28;5011689;28;1398;-74
2022/01/10 11:27:09;;;;;;;;;;;;;;;3.07;100.00;101357.88;5027769;28;1961;-73
2022/01/10 11:29:41;;;;;;;;;;;;;;;3.13;100.00;101368.38;5029963;28;1350;-75
2022/01/10 11:32:08;;;;;;;;;;;;;;;3.03;100.00;101367.84;5025137;28;1267;-74
2022/01/10 11:34:34;;;;;;;;;;;;;;;3.06;100.00;101375.81;5030187;28;1914;-74
2022/01/10 11:37:01;;;;;;;;;;;;;;;3.14;100.00;101373.69;5030138;28;1658;-73
2022/01/10 11:39:35;;;;;;;;;;;;;;;3.28;100.00;101372.25;5019605;28;1493;-74
2022/01/10 11:42:02;;;;;;;;;;;;;;;3.30;100.00;101382.00;5028946;28;1461;-75
2022/01/10 11:44:31;;;;;;;;;;;;;;;3.31;100.00;101391.78;5030712;28;1597;-74
2022/01/10 11:46:59;;;;;;;;;;;;;;;3.30;100.00;101389.16;5030435;28;1465;-74
2022/01/10 11:49:25;;;;;;;;;;;;;;;3.33;100.00;101395.28;5030961;28;1294;-74
2022/01/10 11:52:00;;;;;;;;;;;;;;;3.37;100.00;101400.50;5030201;28;1513;-74
2022/01/10 11:54:27;;;;;;;;;;;;;;;3.45;100.00;101398.41;5029440;28;1910;-74
2022/01/10 11:56:55;;;;;;;;;;;;;;;3.52;100.00;101413.31;5030016;28;1572;-74
2022/01/10 11:59:23;;;;;;;;;;;;;;;3.55;100.00;101415.00;5030282;28;1390;-74
2022/01/10 12:01:53;;;;;;;;;;;;;;;3.58;100.00;101409.50;5024284;28;1484;-74
2022/01/10 12:04:20;;;;;;;;;;;;;;;3.52;100.00;101402.59;5030750;28;1535;-73
2022/01/10 12:06:47;;;;;;;;;;;;;;;3.50;100.00;101410.72;5029588;28;1242;-73
2022/01/10 12:09:14;;;;;;;;;;;;;;;3.49;100.00;101417.00;5028554;28;1336;-74
2022/01/10 12:11:41;;;;;;;;;;;;;;;3.50;100.00;101421.44;5029720;28;761;-73
2022/01/10 12:14:08;;;;;;;;;;;;;;;3.44;100.00;101437.78;5030954;28;1981;-75
2022/01/10 12:16:35;;;;;;;;;;;;;;;3.46;100.00;101438.63;5027640;28;899;-74
2022/01/10 12:19:03;;;;;;;;;;;;;;;3.49;100.00;101443.84;5031431;28;1511;-74
2022/01/10 12:21:29;;;;;;;;;;;;;;;3.46;100.00;101452.03;5031155;28;1074;-75
2022/01/10 12:23:57;;;;;;;;;;;;;;;3.37;100.00;101457.78;5032716;28;1588;-74
2022/01/10 12:26:24;;;;;;;;;;;;;;;3.34;100.00;101460.56;5031523;28;1470;-75
2022/01/10 12:28:52;;;;;;;;;;;;;;;3.30;100.00;101475.03;5027954;28;1495;-74
2022/01/10 12:31:19;;;;;;;;;;;;;;;3.21;100.00;101478.97;5025987;28;1541;-74
2022/01/10 12:33:46;;;;;;;;;;;;;;;3.14;100.00;101481.00;5029990;28;1973;-73
2022/01/10 12:36:13;;;;;;;;;;;;;;;3.06;100.00;101485.78;5028711;28;824;-74
2022/01/10 12:38:40;;;;;;;;;;;;;;;3.06;100.00;101490.25;5029831;28;1478;-74
2022/01/10 12:41:07;;;;;;;;;;;;;;;2.99;100.00;101498.56;5030260;28;974;-74
2022/01/10 12:43:33;;;;;;;;;;;;;;;2.90;100.00;101508.72;5030357;28;1053;-74
2022/01/10 12:45:59;;;;;;;;;;;;;;;2.76;100.00;101519.97;5029799;28;867;-73
2022/01/10 12:48:26;;;;;;;;;;;;;;;2.58;100.00;101524.16;5029030;28;1290;-74
2022/01/10 12:50:54;;;;;;;;;;;;;;;2.43;100.00;101528.25;5030317;28;803;-74
2022/01/10 12:53:23;;;;;;;;;;;;;;;2.34;100.00;101534.81;5030790;28;848;-74